createdAt,value
2022-11-19T00:01:28.573Z,99.90
2022-11-19T00:03:58.937Z,99.90
2022-11-19T00:06:27.713Z,99.90
2022-11-19T00:08:55.477Z,99.90
2022-11-19T00:11:44.116Z,99.90
2022-11-19T00:14:13.820Z,99.90
2022-11-19T00:16:41.825Z,99.90
2022-11-19T00:19:11.163Z,99.90
2022-11-19T00:21:38.091Z,99.90
2022-11-19T00:24:05.900Z,99.90
2022-11-19T00:26:32.750Z,99.90
2022-11-19T00:29:00.020Z,99.90
2022-11-19T00:31:27.008Z,99.90
2022-11-19T00:33:54.942Z,99.90
2022-11-19T00:36:22.644Z,99.90
2022-11-19T00:38:49.623Z,99.90
2022-11-19T00:41:16.581Z,99.90
2022-11-19T00:43:49.942Z,99.90
2022-11-19T00:46:23.096Z,99.90
2022-11-19T00:48:52.308Z,99.90
2022-11-19T00:51:21.497Z,99.90
2022-11-19T00:53:48.476Z,99.90
2022-11-19T00:56:19.155Z,99.90
2022-11-19T00:58:47.014Z,99.90
2022-11-19T01:01:16.344Z,99.90
2022-11-19T01:03:45.667Z,99.90
2022-11-19T01:06:18.817Z,99.90
2022-11-19T01:08:47.923Z,99.90
2022-11-19T01:11:20.436Z,99.90
2022-11-19T01:13:48.115Z,99.90
2022-11-19T01:16:27.937Z,99.90
2022-11-19T01:18:55.566Z,99.90
2022-11-19T01:21:29.468Z,99.90
2022-11-19T01:23:57.545Z,99.90
2022-11-19T01:26:25.435Z,99.90
2022-11-19T01:28:52.914Z,99.90
2022-11-19T01:31:26.793Z,99.90
2022-11-19T01:33:54.650Z,99.90
2022-11-19T01:36:26.469Z,99.90
2022-11-19T01:38:54.797Z,99.90
2022-11-19T01:41:29.022Z,99.90
2022-11-19T01:43:59.414Z,99.90
2022-11-19T01:46:33.358Z,99.90
2022-11-19T01:49:20.869Z,99.90
2022-11-19T01:52:00.848Z,99.90
2022-11-19T01:54:39.611Z,99.90
2022-11-19T01:57:11.359Z,99.90
2022-11-19T01:59:39.407Z,99.90
2022-11-19T02:02:06.396Z,99.80
2022-11-19T02:04:35.383Z,99.90
2022-11-19T02:07:02.949Z,99.80
2022-11-19T02:09:30.560Z,99.90
2022-11-19T02:12:06.179Z,99.90
2022-11-19T02:14:57.208Z,99.90
2022-11-19T02:17:53.383Z,99.90
2022-11-19T02:20:50.565Z,99.90
2022-11-19T02:23:23.156Z,99.80
2022-11-19T02:26:10.959Z,99.90
2022-11-19T02:29:14.566Z,99.90
2022-11-19T02:31:56.696Z,99.90
2022-11-19T02:34:47.838Z,99.90
2022-11-19T02:37:28.094Z,99.90
2022-11-19T02:40:23.745Z,99.80
2022-11-19T02:43:11.734Z,99.50
2022-11-19T02:45:56.312Z,99.60
2022-11-19T02:48:29.105Z,99.70
2022-11-19T02:51:01.333Z,99.50
2022-11-19T02:53:28.348Z,99.60
2022-11-19T02:56:13.988Z,99.60
2022-11-19T02:59:10.329Z,99.40
2022-11-19T03:02:01.159Z,99.10
2022-11-19T03:04:32.568Z,98.40
2022-11-19T03:07:17.644Z,98.50
2022-11-19T03:09:56.453Z,98.70
2022-11-19T03:12:36.409Z,97.90
2022-11-19T03:15:49.735Z,97.90
2022-11-19T03:18:41.447Z,98.10
2022-11-19T03:21:25.641Z,98.00
2022-11-19T03:24:21.069Z,97.80
2022-11-19T03:27:15.753Z,98.10
2022-11-19T03:29:49.174Z,98.30
2022-11-19T03:32:26.501Z,99.70
2022-11-19T03:35:00.138Z,98.30
2022-11-19T03:37:31.385Z,98.20
2022-11-19T03:40:00.887Z,98.50
2022-11-19T03:42:28.401Z,98.30
2022-11-19T03:45:04.023Z,98.10
2022-11-19T03:47:35.820Z,98.00
2022-11-19T03:50:45.716Z,97.40
2022-11-19T03:53:12.963Z,97.30
2022-11-19T03:55:55.189Z,97.10
2022-11-19T03:58:26.093Z,96.90
2022-11-19T04:00:54.006Z,96.90
2022-11-19T04:03:21.030Z,97.10
2022-11-19T04:08:15.345Z,97.00
2022-11-19T04:13:09.704Z,96.90
2022-11-19T04:15:36.652Z,97.10
2022-11-19T04:18:03.741Z,97.40
2022-11-19T04:20:30.676Z,97.50
2022-11-19T04:22:57.556Z,97.80
2022-11-19T04:25:24.481Z,97.80
2022-11-19T04:27:51.752Z,97.70
2022-11-19T04:30:19.444Z,97.90
2022-11-19T04:32:46.799Z,98.10
2022-11-19T04:35:14.204Z,98.10
2022-11-19T04:37:41.153Z,98.00
2022-11-19T04:40:08.933Z,98.30
2022-11-19T04:42:35.797Z,98.30
2022-11-19T04:45:02.682Z,97.90
2022-11-19T04:47:29.625Z,97.70
2022-11-19T04:49:56.463Z,98.20
2022-11-19T04:54:50.641Z,98.30
2022-11-19T04:57:17.467Z,98.20
2022-11-19T04:59:44.581Z,98.10
2022-11-19T05:02:11.644Z,98.20
2022-11-19T05:04:38.518Z,98.50
2022-11-19T05:07:05.438Z,98.20
2022-11-19T05:09:32.413Z,97.80
2022-11-19T05:11:59.276Z,98.10
2022-11-19T05:14:30.310Z,97.90
2022-11-19T05:16:57.622Z,98.00
2022-11-19T05:19:24.521Z,98.30
2022-11-19T05:21:52.011Z,97.70
2022-11-19T05:24:19.041Z,98.00
2022-11-19T05:26:46.312Z,98.00
2022-11-19T05:29:13.206Z,98.10
2022-11-19T05:31:40.120Z,98.50
2022-11-19T05:34:07.070Z,98.50
2022-11-19T05:36:33.918Z,98.50
2022-11-19T05:39:00.785Z,98.70
2022-11-19T05:41:27.702Z,99.10
2022-11-19T05:43:55.744Z,99.40
2022-11-19T05:46:22.685Z,99.40
2022-11-19T05:48:49.562Z,98.60
2022-11-19T05:51:17.104Z,98.30
2022-11-19T05:53:44.541Z,98.60
2022-11-19T05:56:11.531Z,97.90
2022-11-19T05:58:38.420Z,97.70
2022-11-19T06:01:05.438Z,97.70
2022-11-19T06:03:32.758Z,97.50
2022-11-19T06:05:59.719Z,97.80
2022-11-19T06:10:53.936Z,97.30
2022-11-19T06:15:48.348Z,97.40
2022-11-19T06:18:15.351Z,97.30
2022-11-19T06:20:42.268Z,97.60
2022-11-19T06:23:09.149Z,97.70
2022-11-19T06:25:36.066Z,97.70
2022-11-19T06:28:03.002Z,97.40
2022-11-19T06:30:29.995Z,97.40
2022-11-19T06:32:56.880Z,97.60
2022-11-19T06:35:23.845Z,98.00
2022-11-19T06:37:50.862Z,98.60
2022-11-19T06:40:17.787Z,98.00
2022-11-19T06:42:49.831Z,98.30
2022-11-19T06:45:17.836Z,98.60
2022-11-19T06:47:48.673Z,98.90
2022-11-19T06:50:15.556Z,99.90
2022-11-19T06:52:42.553Z,99.90
2022-11-19T06:55:09.965Z,99.90
2022-11-19T06:57:36.904Z,99.90
2022-11-19T07:00:04.862Z,99.90
2022-11-19T07:02:31.816Z,99.90
2022-11-19T07:04:58.703Z,99.90
2022-11-19T07:07:25.592Z,99.90
2022-11-19T07:09:52.488Z,99.90
2022-11-19T07:12:19.381Z,99.90
2022-11-19T07:14:46.271Z,99.90
2022-11-19T07:17:13.225Z,99.90
2022-11-19T07:19:40.292Z,99.90
2022-11-19T07:22:07.269Z,99.90
2022-11-19T07:24:34.267Z,99.90
2022-11-19T07:27:01.222Z,99.80
2022-11-19T07:29:28.259Z,99.50
2022-11-19T07:31:55.469Z,99.50
2022-11-19T07:34:22.397Z,99.90
2022-11-19T07:36:50.091Z,98.60
2022-11-19T07:39:18.288Z,98.90
2022-11-19T07:42:03.721Z,98.20
2022-11-19T07:44:30.764Z,97.80
2022-11-19T07:46:57.951Z,97.40
2022-11-19T07:49:26.140Z,97.10
2022-11-19T07:51:54.305Z,97.20
2022-11-19T07:54:21.424Z,97.50
2022-11-19T07:56:48.361Z,97.40
2022-11-19T07:59:15.368Z,97.60
2022-11-19T08:06:37.542Z,98.00
2022-11-19T08:09:05.844Z,97.80
2022-11-19T08:11:32.787Z,97.60
2022-11-19T08:14:01.836Z,97.30
2022-11-19T08:16:47.414Z,97.30
2022-11-19T08:19:16.304Z,97.60
2022-11-19T08:21:45.812Z,97.70
2022-11-19T08:24:14.302Z,97.30
2022-11-19T08:26:42.066Z,97.10
2022-11-19T08:29:14.835Z,96.90
2022-11-19T08:31:45.948Z,96.70
2022-11-19T08:34:13.262Z,96.80
2022-11-19T08:36:40.371Z,96.50
2022-11-19T08:39:07.462Z,96.60
2022-11-19T08:41:52.774Z,96.90
2022-11-19T08:44:19.997Z,96.70
2022-11-19T08:46:47.178Z,96.70
2022-11-19T08:49:14.524Z,96.80
2022-11-19T08:51:41.768Z,96.30
2022-11-19T08:54:08.816Z,96.30
2022-11-19T08:56:35.786Z,96.00
2022-11-19T08:59:03.579Z,95.20
2022-11-19T09:01:31.209Z,94.30
2022-11-19T09:03:58.407Z,93.60
2022-11-19T09:06:25.480Z,94.50
2022-11-19T09:08:52.441Z,94.80
2022-11-19T09:11:22.233Z,94.10
2022-11-19T09:13:50.472Z,95.10
2022-11-19T09:16:17.721Z,93.70
2022-11-19T09:18:44.666Z,93.70
2022-11-19T09:21:12.367Z,93.90
2022-11-19T09:23:41.509Z,94.50
2022-11-19T09:26:15.648Z,96.10
2022-11-19T09:28:43.772Z,95.10
2022-11-19T09:31:16.661Z,94.80
2022-11-19T09:33:50.141Z,94.50
2022-11-19T09:36:18.616Z,94.40
2022-11-19T09:38:46.747Z,94.20
2022-11-19T09:41:34.479Z,94.40
2022-11-19T09:44:36.539Z,94.50
2022-11-19T09:47:33.809Z,94.40
2022-11-19T09:50:24.031Z,94.40
2022-11-19T09:52:58.577Z,94.80
2022-11-19T09:55:38.305Z,94.90
2022-11-19T09:58:13.977Z,94.70
2022-11-19T10:00:43.428Z,94.10
2022-11-19T10:03:21.478Z,94.30
2022-11-19T10:06:45.634Z,94.60
2022-11-19T10:09:57.985Z,94.50
2022-11-19T10:13:12.753Z,94.90
2022-11-19T10:16:10.907Z,95.40
2022-11-19T10:18:49.563Z,95.50
2022-11-19T10:21:34.333Z,95.60
2022-11-19T10:24:12.171Z,95.90
2022-11-19T10:26:41.414Z,95.40
2022-11-19T10:29:25.871Z,95.40
2022-11-19T10:31:52.891Z,95.10
2022-11-19T10:34:28.224Z,95.10
2022-11-19T10:37:03.076Z,94.80
2022-11-19T10:39:40.313Z,95.40
2022-11-19T10:42:34.180Z,95.30
2022-11-19T10:45:16.168Z,95.10
2022-11-19T10:48:09.749Z,94.90
2022-11-19T10:50:36.932Z,95.00
2022-11-19T10:53:24.237Z,94.70
2022-11-19T10:55:55.697Z,94.50
2022-11-19T10:58:30.479Z,94.10
2022-11-19T11:01:00.066Z,95.30
2022-11-19T11:03:46.996Z,94.00
2022-11-19T11:06:13.988Z,93.80
2022-11-19T11:08:54.666Z,94.10
2022-11-19T11:11:50.086Z,94.20
2022-11-19T11:14:38.904Z,94.10
2022-11-19T11:17:25.647Z,95.60
2022-11-19T11:20:08.056Z,95.10
2022-11-19T11:22:36.314Z,95.10
2022-11-19T11:25:07.332Z,95.00
2022-11-19T11:27:35.677Z,94.40
2022-11-19T11:30:12.673Z,94.30
2022-11-19T11:32:41.021Z,93.80
2022-11-19T11:35:31.768Z,93.90
2022-11-19T11:38:01.469Z,94.30
2022-11-19T11:40:29.826Z,93.90
2022-11-19T11:42:57.216Z,93.50
2022-11-19T11:45:36.329Z,93.90
2022-11-19T11:48:17.885Z,93.80
2022-11-19T11:50:47.960Z,92.60
2022-11-19T11:53:19.557Z,91.70
2022-11-19T11:55:57.355Z,90.90
2022-11-19T11:58:31.329Z,91.10
2022-11-19T12:01:15.978Z,92.50
2022-11-19T12:03:55.689Z,91.70
2022-11-19T12:06:34.844Z,92.70
2022-11-19T12:09:23.628Z,90.80
2022-11-19T12:12:01.929Z,90.70
2022-11-19T12:14:42.949Z,90.90
2022-11-19T12:17:33.958Z,90.80
2022-11-19T12:20:53.815Z,90.60
2022-11-19T12:24:02.816Z,91.40
2022-11-19T12:26:54.999Z,91.20
2022-11-19T12:29:51.593Z,90.70
2022-11-19T12:32:36.809Z,92.30
2022-11-19T12:35:47.223Z,91.40
2022-11-19T12:38:36.530Z,91.50
2022-11-19T12:41:25.770Z,91.60
2022-11-19T12:44:03.688Z,90.40
2022-11-19T12:46:52.853Z,90.90
2022-11-19T12:49:46.815Z,91.20
2022-11-19T12:53:02.811Z,91.90
2022-11-19T12:55:38.393Z,92.10
2022-11-19T12:58:33.339Z,92.50
2022-11-19T13:01:06.583Z,92.80
2022-11-19T13:03:58.525Z,92.70
2022-11-19T13:06:42.792Z,92.70
2022-11-19T13:09:21.390Z,93.10
2022-11-19T13:11:59.481Z,93.60
2022-11-19T13:14:42.849Z,94.00
2022-11-19T13:17:26.164Z,94.90
2022-11-19T13:19:59.753Z,95.70
2022-11-19T13:22:33.115Z,96.00
2022-11-19T13:25:25.393Z,97.00
2022-11-19T13:27:55.463Z,96.80
2022-11-19T13:30:26.903Z,97.60
2022-11-19T13:33:19.790Z,98.30
2022-11-19T13:36:10.327Z,98.10
2022-11-19T13:38:45.026Z,98.30
2022-11-19T13:41:25.648Z,98.30
2022-11-19T13:44:14.963Z,98.70
2022-11-19T13:46:58.679Z,99.00
2022-11-19T13:49:40.224Z,99.30
2022-11-19T13:52:34.075Z,99.30
2022-11-19T13:55:01.650Z,99.60
2022-11-19T13:57:35.083Z,99.50
2022-11-19T14:00:21.839Z,99.50
2022-11-19T14:03:13.517Z,99.50
2022-11-19T14:06:08.330Z,99.80
2022-11-19T14:08:48.346Z,99.90
2022-11-19T14:11:51.932Z,99.80
2022-11-19T14:15:11.830Z,99.90
2022-11-19T14:18:04.684Z,99.90
2022-11-19T14:20:54.496Z,99.90
2022-11-19T14:24:01.650Z,99.90
2022-11-19T14:26:40.917Z,99.90
2022-11-19T14:29:27.672Z,99.90
2022-11-19T14:32:00.592Z,99.90
2022-11-19T14:34:39.911Z,99.90
2022-11-19T14:37:19.329Z,99.90
2022-11-19T14:39:54.908Z,99.90
2022-11-19T14:42:23.363Z,99.90
2022-11-19T14:45:05.090Z,99.90
2022-11-19T14:47:37.539Z,99.90
2022-11-19T14:50:08.680Z,99.90
2022-11-19T14:52:51.440Z,99.90
2022-11-19T14:55:27.608Z,99.90
2022-11-19T14:58:03.385Z,99.90
2022-11-19T15:00:34.226Z,99.90
2022-11-19T15:03:05.283Z,99.90
2022-11-19T15:05:36.034Z,99.90
2022-11-19T15:08:18.139Z,99.90
2022-11-19T15:11:14.078Z,99.90
2022-11-19T15:13:44.383Z,99.90
2022-11-19T15:16:21.343Z,99.90
2022-11-19T15:19:25.626Z,99.90
2022-11-19T15:22:21.859Z,99.90
2022-11-19T15:25:18.886Z,99.90
2022-11-19T15:28:05.723Z,99.90
2022-11-19T15:31:15.186Z,99.90
2022-11-19T15:34:10.145Z,99.90
2022-11-19T15:36:40.545Z,99.90
2022-11-19T15:39:43.068Z,99.90
2022-11-19T15:42:19.547Z,99.90
2022-11-19T15:45:05.792Z,99.90
2022-11-19T15:47:48.317Z,99.90
2022-11-19T15:50:19.322Z,99.90
2022-11-19T15:53:14.569Z,99.90
2022-11-19T15:55:58.094Z,99.90
2022-11-19T15:58:33.742Z,99.90
2022-11-19T16:01:00.844Z,99.90
2022-11-19T16:03:27.816Z,99.90
2022-11-19T16:06:23.553Z,99.90
2022-11-19T16:08:56.478Z,99.90
2022-11-19T16:11:46.340Z,99.90
2022-11-19T16:14:46.903Z,99.90
2022-11-19T16:17:46.925Z,99.90
2022-11-19T16:20:13.694Z,99.90
2022-11-19T16:23:06.929Z,99.90
2022-11-19T16:25:41.509Z,99.90
2022-11-19T16:28:17.483Z,99.90
2022-11-19T16:31:00.044Z,99.90
2022-11-19T16:33:29.424Z,99.90
2022-11-19T16:36:17.401Z,99.90
2022-11-19T16:38:48.665Z,99.90
2022-11-19T16:41:41.440Z,99.90
2022-11-19T16:44:19.243Z,99.90
2022-11-19T16:46:46.891Z,99.90
2022-11-19T16:49:32.090Z,99.90
2022-11-19T16:51:59.825Z,99.90
2022-11-19T16:54:47.435Z,99.90
2022-11-19T16:57:19.262Z,99.90
2022-11-19T16:59:53.709Z,99.90
2022-11-19T17:02:25.521Z,99.90
2022-11-19T17:04:56.033Z,99.90
2022-11-19T17:07:29.803Z,99.90
2022-11-19T17:10:18.714Z,99.90
2022-11-19T17:12:52.950Z,99.90
2022-11-19T17:15:47.210Z,99.90
2022-11-19T17:18:16.964Z,99.90
2022-11-19T17:20:43.967Z,99.90
2022-11-19T17:23:32.139Z,99.90
2022-11-19T17:26:02.638Z,99.90
2022-11-19T17:28:49.184Z,99.90
2022-11-19T17:31:28.871Z,99.90
2022-11-19T17:34:04.876Z,99.90
2022-11-19T17:36:31.750Z,99.90
2022-11-19T17:38:58.824Z,99.90
2022-11-19T17:41:47.406Z,99.90
2022-11-19T17:44:39.089Z,99.90
2022-11-19T17:47:22.183Z,99.90
2022-11-19T17:49:50.569Z,99.90
2022-11-19T17:52:30.212Z,99.90
2022-11-19T17:55:23.589Z,99.90
2022-11-19T17:57:50.630Z,99.90
2022-11-19T18:00:17.624Z,99.90
2022-11-19T18:02:44.675Z,99.90
2022-11-19T18:05:20.110Z,99.90
2022-11-19T18:07:47.119Z,99.90
2022-11-19T18:10:14.082Z,99.90
2022-11-19T18:12:40.969Z,99.90
2022-11-19T18:15:13.107Z,99.90
2022-11-19T18:17:40.011Z,99.90
2022-11-19T18:20:08.367Z,99.90
2022-11-19T18:22:36.093Z,99.90
2022-11-19T18:25:07.146Z,99.90
2022-11-19T18:27:33.977Z,99.90
2022-11-19T18:30:00.868Z,99.90
2022-11-19T18:34:58.016Z,99.90
2022-11-19T18:37:28.916Z,99.90
2022-11-19T18:39:55.959Z,99.90
2022-11-19T18:42:28.750Z,99.90
2022-11-19T18:44:55.791Z,99.90
2022-11-19T18:47:24.473Z,99.90
2022-11-19T18:49:51.433Z,99.90
2022-11-19T18:52:18.468Z,99.90
2022-11-19T18:57:13.011Z,99.90
2022-11-19T18:59:40.022Z,99.90
2022-11-19T19:02:07.284Z,99.90
2022-11-19T19:04:34.377Z,99.90
2022-11-19T19:07:01.311Z,99.90
2022-11-19T19:09:28.214Z,99.90
2022-11-19T19:12:14.217Z,99.90
2022-11-19T19:14:43.440Z,99.90
2022-11-19T19:17:12.257Z,99.90
2022-11-19T19:22:07.713Z,99.90
2022-11-19T19:24:34.661Z,99.90
2022-11-19T19:27:02.594Z,99.90
2022-11-19T19:29:29.442Z,99.90
2022-11-19T19:31:57.107Z,99.90
2022-11-19T19:36:53.362Z,99.90
2022-11-19T19:39:21.237Z,99.90
2022-11-19T19:41:49.190Z,99.90
2022-11-19T19:44:16.380Z,99.90
2022-11-19T19:46:43.321Z,99.90
2022-11-19T19:49:10.213Z,99.90
2022-11-19T19:51:37.144Z,99.90
2022-11-19T19:54:04.165Z,99.90
2022-11-19T19:56:32.980Z,99.90
2022-11-19T19:59:01.358Z,99.90
2022-11-19T20:01:35.370Z,99.90
2022-11-19T20:04:11.036Z,99.90
2022-11-19T20:06:42.239Z,99.90
2022-11-19T20:09:09.782Z,99.90
2022-11-19T20:11:37.509Z,99.90
2022-11-19T20:14:05.354Z,99.90
2022-11-19T20:16:33.969Z,99.90
2022-11-19T20:19:02.232Z,99.90
2022-11-19T20:21:33.957Z,99.90
2022-11-19T20:24:02.480Z,99.90
2022-11-19T20:26:31.876Z,99.90
2022-11-19T20:29:01.644Z,99.90
2022-11-19T20:31:30.325Z,99.90
2022-11-19T20:34:00.212Z,99.90
2022-11-19T20:36:30.547Z,99.90
2022-11-19T20:38:57.706Z,99.90
2022-11-19T20:42:04.105Z,99.90
2022-11-19T20:47:03.712Z,99.90
2022-11-19T20:49:36.613Z,99.90
2022-11-19T20:52:03.933Z,99.90
2022-11-19T20:54:30.867Z,99.90
2022-11-19T20:56:58.530Z,99.90
2022-11-19T20:59:26.603Z,99.90
2022-11-19T21:01:55.642Z,99.90
2022-11-19T21:04:24.815Z,99.90
2022-11-19T21:06:51.841Z,99.90
2022-11-19T21:09:19.804Z,99.90
2022-11-19T21:11:47.845Z,99.90
2022-11-19T21:14:14.772Z,99.90
2022-11-19T21:16:41.678Z,99.90
2022-11-19T21:19:10.407Z,99.90
2022-11-19T21:21:38.160Z,99.90
2022-11-19T21:24:05.826Z,99.90
2022-11-19T21:26:33.091Z,99.90
2022-11-19T21:29:00.854Z,99.90
2022-11-19T21:31:41.603Z,99.90
2022-11-19T21:34:14.562Z,99.90
2022-11-19T21:36:43.295Z,99.90
2022-11-19T21:39:11.558Z,99.90
2022-11-19T21:41:38.797Z,99.90
2022-11-19T21:44:06.339Z,99.90
2022-11-19T21:46:33.928Z,99.90
2022-11-19T21:49:01.511Z,99.90
2022-11-19T21:51:28.571Z,99.90
2022-11-19T21:53:59.189Z,99.90
2022-11-19T21:56:27.425Z,99.90
2022-11-19T21:58:54.415Z,99.90
2022-11-19T22:01:21.528Z,99.90
2022-11-19T22:06:15.845Z,99.90
2022-11-19T22:08:43.316Z,99.90
2022-11-19T22:11:30.416Z,99.90
2022-11-19T22:14:05.457Z,99.90
2022-11-19T22:16:36.543Z,99.90
2022-11-19T22:21:33.047Z,99.90
2022-11-19T22:24:00.435Z,99.90
2022-11-19T22:26:28.128Z,99.90
2022-11-19T22:28:55.685Z,99.90
2022-11-19T22:31:23.795Z,99.90
2022-11-19T22:33:52.092Z,99.90
2022-11-19T22:36:20.336Z,99.90
2022-11-19T22:38:47.223Z,99.90
2022-11-19T22:41:18.069Z,99.90
2022-11-19T22:46:14.488Z,99.90
2022-11-19T22:48:41.807Z,99.90
2022-11-19T22:51:23.789Z,99.90
2022-11-19T22:53:52.824Z,99.90
2022-11-19T22:56:27.134Z,99.90
2022-11-19T22:58:54.654Z,99.90
2022-11-19T23:01:31.591Z,99.90
2022-11-19T23:04:01.887Z,99.90
2022-11-19T23:06:29.152Z,99.90
2022-11-19T23:08:57.318Z,99.90
2022-11-19T23:11:43.102Z,99.90
2022-11-19T23:14:14.288Z,99.90
2022-11-19T23:16:42.126Z,99.90
2022-11-19T23:19:11.740Z,99.90
2022-11-19T23:21:40.069Z,99.90
2022-11-19T23:24:09.868Z,99.90
2022-11-19T23:26:38.057Z,99.90
2022-11-19T23:29:06.403Z,99.90
2022-11-19T23:31:37.878Z,99.90
2022-11-19T23:34:05.497Z,99.90
2022-11-19T23:36:35.689Z,99.90
2022-11-19T23:39:03.674Z,99.90
2022-11-19T23:41:33.577Z,99.90
2022-11-19T23:44:01.085Z,99.90
2022-11-19T23:46:34.868Z,99.90
2022-11-19T23:49:04.060Z,99.90
2022-11-19T23:51:35.727Z,99.90
2022-11-19T23:56:33.018Z,99.90
2022-11-19T23:59:03.612Z,99.90
